DFFD

Ouagadougou Airport

Ouagadougou, Burkina Faso
METAR DFFD 171600Z 22004KT 9999 TS SCT020 SCT036CB 30/25 Q1011 TEMPO 4000 TSRA
Observed Flight Rules
Aug-17 @ 16:00 UTC (53 minutes ago) Visual Flight Rules
Wind Visibility Clouds Conditions
220° at 4 knots 10,000+ meters
  • Scattered at 2,000' AGL
  • Scattered at 3,600' AGL
  • Thunderstorm
Temperatures Readings
Current 30°C / 86°F
Dewpoint 25°C / 77°F
Humidity 75%
Altimeter 29.85" Hg
Pressure 1011 hPa
Elevation 306
METAR DFFD 171600Z 22004KT 9999 TS SCT020 SCT036CB 30/25 Q1011 TEMPO 4000 TSRA
Observed Flight Rules
Aug-17 @ 16:00 UTC
(53 minutes ago)
VFR
Wind Visibility
220° at 4 knots 10,000+ meters
Clouds
  • Scattered at 2,000' AGL
  • Scattered at 3,600' AGL
Conditions
  • Thunderstorm
Temperature Dewpoint
30°C / 86°F 25°C / 77°F
Humidity Altimeter Pressure
75% 29.85" Hg 1011 hPa